LFQG 221130Z AUTO 23008KT 190V280 CAVOK 11/04 Q1032

ElémentsDécodage
LFQG Station météo située sur l'aérodrome de NEVERS Fourchambault
221130Z émis le 22 du mois à 11h30 UTC
AUTO Bulletin édité par un automate
23008KT vent du 230°, 08 noeuds
190V280 vent de direction variable entre 190° et 280°
CAVOK Ceiling And Visibility OK
- Visibilité de 10 Km ou plus
- Pas de nuage au-dessous de 1500m ou au-dessous de l'altitude minimale du secteur la plus élevée (si>1500m) et absence de CB
- pas de temps présent significatif
11/04 température 11°C, point de rosée 04°C
 soit une humidité relative de 62%
Q1032 la pression au niveau de la mer (QNH) est de 1032 hPa